createdAt,value
2022-12-19T00:00:50.895Z,99485.00
2022-12-19T00:03:20.098Z,99485.00
2022-12-19T00:05:49.298Z,99494.00
2022-12-19T00:08:18.838Z,99501.00
2022-12-19T00:10:59.174Z,99507.00
2022-12-19T00:13:34.763Z,99500.00
2022-12-19T00:16:18.835Z,99507.00
2022-12-19T00:18:52.340Z,99512.00
2022-12-19T00:21:28.042Z,99518.00
2022-12-19T00:23:57.721Z,99520.00
2022-12-19T00:26:33.968Z,99521.00
2022-12-19T00:29:14.126Z,99514.00
2022-12-19T00:31:43.829Z,99522.00
2022-12-19T00:34:13.088Z,99521.00
2022-12-19T00:36:42.353Z,99524.00
2022-12-19T00:39:12.624Z,99530.00
2022-12-19T00:41:43.057Z,99532.00
2022-12-19T00:44:16.534Z,99537.00
2022-12-19T00:46:50.262Z,99543.00
2022-12-19T00:49:22.967Z,99554.00
2022-12-19T00:51:52.549Z,99546.00
2022-12-19T00:54:21.953Z,99551.00
2022-12-19T00:56:51.338Z,99560.00
2022-12-19T00:59:26.513Z,99564.00
2022-12-19T01:01:56.606Z,99566.00
2022-12-19T01:04:28.565Z,99574.00
2022-12-19T01:07:01.793Z,99578.00
2022-12-19T01:09:33.529Z,99586.00
2022-12-19T01:12:24.763Z,99581.00
2022-12-19T01:15:04.922Z,99589.00
2022-12-19T01:17:44.418Z,99590.00
2022-12-19T01:20:29.184Z,99594.00
2022-12-19T01:23:00.712Z,99590.00
2022-12-19T01:25:30.212Z,99591.00
2022-12-19T01:27:59.864Z,99588.00
2022-12-19T01:30:30.744Z,99591.00
2022-12-19T01:33:02.341Z,99595.00
2022-12-19T01:35:31.546Z,99594.00
2022-12-19T01:38:08.114Z,99589.00
2022-12-19T01:40:38.628Z,99591.00
2022-12-19T01:43:15.876Z,99588.00
2022-12-19T01:45:46.032Z,99579.00
2022-12-19T01:48:31.868Z,99588.00
2022-12-19T01:51:17.622Z,99587.00
2022-12-19T01:53:52.472Z,99586.00
2022-12-19T01:56:29.323Z,99591.00
2022-12-19T01:59:06.409Z,99591.00
2022-12-19T02:01:50.919Z,99589.00
2022-12-19T02:04:22.463Z,99601.00
2022-12-19T02:06:54.184Z,99596.00
2022-12-19T02:09:23.911Z,99596.00
2022-12-19T02:11:54.065Z,99597.00
2022-12-19T02:14:23.933Z,99604.00
2022-12-19T02:17:20.204Z,99610.00
2022-12-19T02:20:22.299Z,99602.00
2022-12-19T02:23:03.339Z,99597.00
2022-12-19T02:26:22.812Z,99595.00
2022-12-19T02:29:39.637Z,99597.00
2022-12-19T02:32:23.904Z,99597.00
2022-12-19T02:35:01.361Z,99588.00
2022-12-19T02:37:43.741Z,99583.00
2022-12-19T02:40:55.747Z,99584.00
2022-12-19T02:43:33.109Z,99583.00
2022-12-19T02:46:05.881Z,99594.00
2022-12-19T02:48:36.182Z,99589.00
2022-12-19T02:51:06.206Z,99580.00
2022-12-19T02:53:37.744Z,99573.00
2022-12-19T02:57:04.894Z,99569.00
2022-12-19T02:59:45.827Z,99556.00
2022-12-19T03:02:37.305Z,99561.00
2022-12-19T03:05:18.522Z,99549.00
2022-12-19T03:08:21.119Z,99550.00
2022-12-19T03:11:15.760Z,99542.00
2022-12-19T03:14:01.188Z,99534.00
2022-12-19T03:16:30.969Z,99533.00
2022-12-19T03:19:03.893Z,99519.00
2022-12-19T03:21:51.614Z,99529.00
2022-12-19T03:24:21.746Z,99519.00
2022-12-19T03:27:09.164Z,99513.00
2022-12-19T03:29:57.468Z,99514.00
2022-12-19T03:32:28.481Z,99516.00
2022-12-19T03:35:19.487Z,99512.00
2022-12-19T03:37:53.660Z,99508.00
2022-12-19T03:40:27.372Z,99505.00
2022-12-19T03:43:11.282Z,99500.00
2022-12-19T03:48:48.546Z,99496.00
2022-12-19T03:51:39.271Z,99492.00
2022-12-19T03:54:32.565Z,99485.00
2022-12-19T03:57:22.456Z,99479.00
2022-12-19T03:59:58.220Z,99472.00
2022-12-19T04:02:28.834Z,99474.00
2022-12-19T04:05:10.650Z,99468.00
2022-12-19T04:07:42.844Z,99454.00
2022-12-19T04:10:18.105Z,99450.00
2022-12-19T04:13:07.426Z,99444.00
2022-12-19T04:16:30.123Z,99431.00
2022-12-19T04:19:12.628Z,99422.00
2022-12-19T04:21:57.440Z,99407.00
2022-12-19T04:24:37.587Z,99407.00
2022-12-19T04:27:09.689Z,99398.00
2022-12-19T04:29:40.778Z,99395.00
2022-12-19T04:32:12.595Z,99394.00
2022-12-19T04:34:43.178Z,99381.00
2022-12-19T04:37:13.526Z,99378.00
2022-12-19T04:39:42.752Z,99381.00
2022-12-19T04:42:11.954Z,99366.00
2022-12-19T04:44:41.275Z,99355.00
2022-12-19T04:47:10.513Z,99362.00
2022-12-19T04:49:39.727Z,99347.00
2022-12-19T04:52:08.950Z,99343.00
2022-12-19T04:54:38.248Z,99339.00
2022-12-19T04:57:07.778Z,99334.00
2022-12-19T04:59:37.155Z,99330.00
2022-12-19T05:02:09.376Z,99324.00
2022-12-19T05:04:38.763Z,99315.00
2022-12-19T05:07:08.001Z,99300.00
2022-12-19T05:09:40.238Z,99294.00
2022-12-19T05:12:12.226Z,99293.00
2022-12-19T05:14:50.200Z,99283.00
2022-12-19T05:17:22.261Z,99281.00
2022-12-19T05:19:51.588Z,99272.00
2022-12-19T05:22:33.296Z,99261.00
2022-12-19T05:25:02.784Z,99258.00
2022-12-19T05:27:33.236Z,99248.00
2022-12-19T05:30:03.170Z,99250.00
2022-12-19T05:32:34.692Z,99234.00
2022-12-19T05:35:03.952Z,99231.00
2022-12-19T05:37:33.360Z,99230.00
2022-12-19T05:40:02.514Z,99228.00
2022-12-19T05:42:31.724Z,99219.00
2022-12-19T05:45:00.915Z,99209.00
2022-12-19T05:47:30.768Z,99198.00
2022-12-19T05:50:00.482Z,99194.00
2022-12-19T05:52:29.885Z,99197.00
2022-12-19T05:55:00.389Z,99186.00
2022-12-19T05:57:29.526Z,99177.00
2022-12-19T05:59:58.622Z,99173.00
2022-12-19T06:02:27.960Z,99168.00
2022-12-19T06:04:57.126Z,99161.00
2022-12-19T06:07:26.387Z,99160.00
2022-12-19T06:09:55.467Z,99157.00
2022-12-19T06:12:24.946Z,99152.00
2022-12-19T06:14:54.157Z,99147.00
2022-12-19T06:17:23.306Z,99143.00
2022-12-19T06:19:52.458Z,99135.00
2022-12-19T06:22:21.554Z,99130.00
2022-12-19T06:24:50.772Z,99132.00
2022-12-19T06:27:19.875Z,99128.00
2022-12-19T06:29:49.621Z,99126.00
2022-12-19T06:32:18.779Z,99126.00
2022-12-19T06:35:03.576Z,99125.00
2022-12-19T06:37:33.000Z,99112.00
2022-12-19T06:40:02.091Z,99107.00
2022-12-19T06:42:31.276Z,99096.00
2022-12-19T06:45:00.419Z,99091.00
2022-12-19T06:47:30.121Z,99096.00
2022-12-19T06:49:59.311Z,99078.00
2022-12-19T06:52:28.594Z,99077.00
2022-12-19T06:54:59.460Z,99076.00
2022-12-19T06:57:29.078Z,99061.00
2022-12-19T07:00:04.222Z,99056.00
2022-12-19T07:02:34.490Z,99054.00
2022-12-19T07:05:08.769Z,99052.00
2022-12-19T07:07:38.660Z,99050.00
2022-12-19T07:10:13.098Z,99049.00
2022-12-19T07:12:43.358Z,99054.00
2022-12-19T07:15:13.337Z,99047.00
2022-12-19T07:17:43.354Z,99036.00
2022-12-19T07:20:15.131Z,99038.00
2022-12-19T07:22:49.735Z,99030.00
2022-12-19T07:25:20.699Z,99022.00
2022-12-19T07:27:50.627Z,99019.00
2022-12-19T07:30:20.253Z,99012.00
2022-12-19T07:32:53.201Z,99016.00
2022-12-19T07:35:23.933Z,99009.00
2022-12-19T07:37:53.568Z,99012.00
2022-12-19T07:40:23.749Z,99003.00
2022-12-19T07:42:58.124Z,99008.00
2022-12-19T07:45:28.345Z,98997.00
2022-12-19T07:48:02.781Z,98998.00
2022-12-19T07:50:33.548Z,98994.00
2022-12-19T07:53:02.852Z,98987.00
2022-12-19T07:55:32.059Z,98980.00
2022-12-19T07:58:01.512Z,98989.00
2022-12-19T08:00:36.437Z,98978.00
2022-12-19T08:03:08.781Z,98977.00
2022-12-19T08:05:38.858Z,98974.00
2022-12-19T08:08:12.558Z,98972.00
2022-12-19T08:10:55.933Z,98977.00
2022-12-19T08:13:35.156Z,98975.00
2022-12-19T08:16:10.113Z,98973.00
2022-12-19T08:18:43.324Z,98971.00
2022-12-19T08:21:14.619Z,98964.00
2022-12-19T08:23:48.859Z,98956.00
2022-12-19T08:26:26.168Z,98966.00
2022-12-19T08:28:58.446Z,98963.00
2022-12-19T08:31:30.744Z,98959.00
2022-12-19T08:34:00.760Z,98966.00
2022-12-19T08:36:33.275Z,98966.00
2022-12-19T08:39:05.670Z,98964.00
2022-12-19T08:41:35.958Z,98960.00
2022-12-19T08:44:13.467Z,98951.00
2022-12-19T08:46:48.022Z,98950.00
2022-12-19T08:52:05.885Z,98956.00
2022-12-19T08:54:37.121Z,98949.00
2022-12-19T08:57:06.545Z,98950.00
2022-12-19T08:59:51.113Z,98942.00
2022-12-19T09:02:21.562Z,98944.00
2022-12-19T09:05:57.211Z,98941.00
2022-12-19T09:07:41.901Z,98942.00
2022-12-19T09:10:14.207Z,98943.00
2022-12-19T09:12:46.673Z,98945.00
2022-12-19T09:15:20.374Z,98947.00
2022-12-19T09:17:56.152Z,98947.00
2022-12-19T09:20:26.436Z,98943.00
2022-12-19T09:22:57.112Z,98940.00
2022-12-19T09:25:27.735Z,98938.00
2022-12-19T09:28:26.959Z,98944.00
2022-12-19T09:31:02.611Z,98943.00
2022-12-19T09:33:43.608Z,98942.00
2022-12-19T09:36:36.704Z,98945.00
2022-12-19T09:39:06.521Z,98944.00
2022-12-19T09:41:58.003Z,98940.00
2022-12-19T09:44:51.904Z,98952.00
2022-12-19T09:47:33.679Z,98951.00
2022-12-19T09:50:04.837Z,98961.00
2022-12-19T09:52:52.374Z,98966.00
2022-12-19T09:55:34.043Z,98965.00
2022-12-19T09:58:33.864Z,98978.00
2022-12-19T10:01:12.548Z,98978.00
2022-12-19T10:03:55.787Z,98977.00
2022-12-19T10:07:12.992Z,98977.00
2022-12-19T10:11:00.956Z,98980.00
2022-12-19T10:13:12.837Z,98994.00
2022-12-19T10:16:23.145Z,98990.00
2022-12-19T10:19:03.078Z,98994.00
2022-12-19T10:25:35.627Z,98997.00
2022-12-19T10:28:40.779Z,99003.00
2022-12-19T10:31:35.663Z,99011.00
2022-12-19T10:34:29.775Z,99018.00
2022-12-19T10:37:26.783Z,99015.00
2022-12-19T10:40:29.520Z,99009.00
2022-12-19T10:43:19.093Z,99012.00
2022-12-19T10:46:04.019Z,99025.00
2022-12-19T10:48:33.550Z,99021.00
2022-12-19T10:51:06.246Z,99022.00
2022-12-19T10:53:36.528Z,99036.00
2022-12-19T10:56:31.698Z,99042.00
2022-12-19T10:59:05.228Z,99043.00
2022-12-19T11:01:40.687Z,99043.00
2022-12-19T11:04:33.143Z,99039.00
2022-12-19T11:07:05.628Z,99051.00
2022-12-19T11:09:50.647Z,99032.00
2022-12-19T11:16:35.575Z,99040.00
2022-12-19T11:19:31.293Z,99044.00
2022-12-19T11:28:08.244Z,99054.00
2022-12-19T11:29:33.020Z,99052.00
2022-12-19T11:30:47.112Z,99052.00
2022-12-19T11:30:48.179Z,99060.00
2022-12-19T11:31:51.002Z,99062.00
2022-12-19T11:33:20.337Z,99059.00
2022-12-19T11:36:02.732Z,99062.00
2022-12-19T11:38:53.786Z,99069.00
2022-12-19T11:41:36.716Z,99069.00
2022-12-19T11:44:33.553Z,99077.00
2022-12-19T11:47:34.410Z,99082.00
2022-12-19T11:50:27.924Z,99082.00
2022-12-19T11:53:24.641Z,99089.00
2022-12-19T11:56:05.027Z,99086.00
2022-12-19T11:58:51.854Z,99087.00
2022-12-19T12:01:48.457Z,99085.00
2022-12-19T12:04:57.628Z,99098.00
2022-12-19T12:07:56.996Z,99095.00
2022-12-19T12:16:09.472Z,99099.00
2022-12-19T12:23:23.465Z,99107.00
2022-12-19T12:31:23.616Z,99115.00
2022-12-19T12:31:27.605Z,99111.00
2022-12-19T12:31:43.269Z,99112.00
2022-12-19T12:31:52.739Z,99120.00
2022-12-19T12:38:30.176Z,99124.00
2022-12-19T12:41:55.404Z,99122.00
2022-12-19T12:44:32.846Z,99130.00
2022-12-19T12:47:27.343Z,99133.00
2022-12-19T12:50:09.007Z,99136.00
2022-12-19T12:52:51.109Z,99139.00
2022-12-19T12:55:44.366Z,99142.00
2022-12-19T12:58:54.386Z,99147.00
2022-12-19T13:01:41.332Z,99153.00
2022-12-19T13:04:13.549Z,99151.00
2022-12-19T13:06:54.781Z,99145.00
2022-12-19T13:09:31.456Z,99141.00
2022-12-19T13:12:46.489Z,99143.00
2022-12-19T13:15:30.681Z,99159.00
2022-12-19T13:18:12.493Z,99158.00
2022-12-19T13:20:47.727Z,99160.00
2022-12-19T13:23:48.053Z,99167.00
2022-12-19T13:26:48.890Z,99165.00
2022-12-19T13:29:32.121Z,99161.00
2022-12-19T13:32:16.586Z,99172.00
2022-12-19T13:35:49.632Z,99171.00
2022-12-19T13:39:59.623Z,99160.00
2022-12-19T13:41:50.101Z,99172.00
2022-12-19T13:44:24.207Z,99167.00
2022-12-19T13:46:56.548Z,99179.00
2022-12-19T13:49:35.659Z,99179.00
2022-12-19T13:52:06.515Z,99184.00
2022-12-19T13:54:57.021Z,99181.00
2022-12-19T14:00:42.133Z,99177.00
2022-12-19T14:03:21.761Z,99178.00
2022-12-19T14:06:16.376Z,99177.00
2022-12-19T14:08:41.661Z,99180.00
2022-12-19T14:11:40.936Z,99180.00
2022-12-19T14:14:27.536Z,99183.00
2022-12-19T14:17:10.066Z,99178.00
2022-12-19T14:19:53.233Z,99173.00
2022-12-19T14:22:41.383Z,99179.00
2022-12-19T14:26:56.938Z,99177.00
2022-12-19T14:28:23.737Z,99182.00
2022-12-19T14:31:09.487Z,99178.00
2022-12-19T14:34:10.964Z,99183.00
2022-12-19T14:36:55.588Z,99173.00
2022-12-19T14:39:33.535Z,99173.00
2022-12-19T14:43:56.249Z,99175.00
2022-12-19T14:52:50.774Z,99173.00
2022-12-19T14:54:07.891Z,99170.00
2022-12-19T14:54:34.134Z,99171.00
2022-12-19T14:58:54.883Z,99174.00
2022-12-19T15:01:07.600Z,99178.00
2022-12-19T15:03:27.979Z,99180.00
2022-12-19T15:07:05.898Z,99180.00
2022-12-19T15:10:58.739Z,99176.00
2022-12-19T15:14:48.709Z,99173.00
2022-12-19T15:16:05.198Z,99177.00
2022-12-19T15:18:44.148Z,99172.00
2022-12-19T15:21:16.047Z,99171.00
2022-12-19T15:23:48.309Z,99172.00
2022-12-19T15:26:22.177Z,99175.00
2022-12-19T15:28:54.792Z,99164.00
2022-12-19T15:31:39.633Z,99167.00
2022-12-19T15:34:51.140Z,99172.00
2022-12-19T15:37:19.170Z,99157.00
2022-12-19T15:39:48.264Z,99156.00
2022-12-19T15:42:22.869Z,99154.00
2022-12-19T15:44:54.776Z,99165.00
2022-12-19T15:47:39.133Z,99160.00
2022-12-19T15:50:19.454Z,99165.00
2022-12-19T15:52:48.621Z,99164.00
2022-12-19T15:55:27.179Z,99167.00
2022-12-19T15:58:08.095Z,99171.00
2022-12-19T16:00:41.059Z,99167.00
2022-12-19T16:03:24.553Z,99164.00
2022-12-19T16:05:55.091Z,99166.00
2022-12-19T16:08:27.131Z,99161.00
2022-12-19T16:11:01.714Z,99163.00
2022-12-19T16:13:36.384Z,99164.00
2022-12-19T16:16:15.095Z,99158.00
2022-12-19T16:18:46.332Z,99164.00
2022-12-19T16:21:35.537Z,99163.00
2022-12-19T16:24:04.796Z,99165.00
2022-12-19T16:26:41.238Z,99167.00
2022-12-19T16:29:38.114Z,99167.00
2022-12-19T16:32:14.735Z,99166.00
2022-12-19T16:34:43.881Z,99164.00
2022-12-19T16:37:13.081Z,99153.00
2022-12-19T16:39:42.395Z,99160.00
2022-12-19T16:42:19.242Z,99158.00
2022-12-19T16:44:49.802Z,99155.00
2022-12-19T16:47:20.684Z,99159.00
2022-12-19T16:49:50.191Z,99151.00
2022-12-19T16:52:19.325Z,99154.00
2022-12-19T16:54:48.463Z,99157.00
2022-12-19T16:57:24.356Z,99159.00
2022-12-19T16:59:53.529Z,99153.00
2022-12-19T17:02:42.036Z,99149.00
2022-12-19T17:05:31.746Z,99152.00
2022-12-19T17:08:01.699Z,99146.00
2022-12-19T17:10:34.477Z,99149.00
2022-12-19T17:13:05.306Z,99147.00
2022-12-19T17:15:39.732Z,99147.00
2022-12-19T17:18:37.177Z,99141.00
2022-12-19T17:21:06.739Z,99143.00
2022-12-19T17:23:35.884Z,99139.00
2022-12-19T17:26:05.076Z,99139.00
2022-12-19T17:28:34.166Z,99142.00
2022-12-19T17:31:12.482Z,99143.00
2022-12-19T17:33:42.958Z,99136.00
2022-12-19T17:36:21.224Z,99133.00
2022-12-19T17:38:53.741Z,99131.00
2022-12-19T17:41:22.942Z,99130.00
2022-12-19T17:43:52.145Z,99128.00
2022-12-19T17:46:24.650Z,99126.00
2022-12-19T17:48:55.370Z,99128.00
2022-12-19T17:51:25.636Z,99125.00
2022-12-19T17:53:54.783Z,99123.00
2022-12-19T17:56:24.017Z,99107.00
2022-12-19T17:58:53.132Z,99105.00
2022-12-19T18:01:26.935Z,99098.00
2022-12-19T18:03:57.192Z,99098.00
2022-12-19T18:06:26.498Z,99096.00
2022-12-19T18:08:56.592Z,99089.00
2022-12-19T18:11:28.146Z,99098.00
2022-12-19T18:13:57.385Z,99087.00
2022-12-19T18:16:31.902Z,99087.00
2022-12-19T18:19:01.066Z,99085.00
2022-12-19T18:21:30.136Z,99088.00
2022-12-19T18:23:59.321Z,99091.00
2022-12-19T18:26:28.419Z,99085.00
2022-12-19T18:28:57.529Z,99080.00
2022-12-19T18:31:28.455Z,99081.00
2022-12-19T18:34:06.967Z,99074.00
2022-12-19T18:36:43.912Z,99077.00
2022-12-19T18:39:25.946Z,99071.00
2022-12-19T18:41:56.169Z,99069.00
2022-12-19T18:44:25.334Z,99069.00
2022-12-19T18:46:55.253Z,99070.00
2022-12-19T18:49:24.579Z,99067.00
2022-12-19T18:51:53.743Z,99067.00
2022-12-19T18:54:24.249Z,99064.00
2022-12-19T18:56:53.528Z,99052.00
2022-12-19T18:59:22.783Z,99055.00
2022-12-19T19:01:52.126Z,99042.00
2022-12-19T19:04:21.465Z,99053.00
2022-12-19T19:06:52.773Z,99041.00
2022-12-19T19:09:23.608Z,99037.00
2022-12-19T19:11:53.008Z,99032.00
2022-12-19T19:14:22.196Z,99040.00
2022-12-19T19:16:53.372Z,99035.00
2022-12-19T19:19:22.632Z,99032.00
2022-12-19T19:21:51.791Z,99030.00
2022-12-19T19:24:24.224Z,99031.00
2022-12-19T19:26:53.420Z,99036.00
2022-12-19T19:29:22.595Z,99032.00
2022-12-19T19:31:54.105Z,99025.00
2022-12-19T19:34:28.773Z,99027.00
2022-12-19T19:37:05.269Z,99029.00
2022-12-19T19:39:36.289Z,99018.00
2022-12-19T19:42:06.040Z,99021.00
2022-12-19T19:44:35.274Z,99018.00
2022-12-19T19:47:04.570Z,99023.00
2022-12-19T19:49:34.424Z,99025.00
2022-12-19T19:52:03.687Z,99013.00
2022-12-19T19:54:33.465Z,99015.00
2022-12-19T19:57:02.829Z,99010.00
2022-12-19T19:59:33.244Z,99013.00
2022-12-19T20:02:02.841Z,99007.00
2022-12-19T20:04:32.730Z,99008.00
2022-12-19T20:07:02.036Z,99015.00
2022-12-19T20:09:31.747Z,99013.00
2022-12-19T20:12:01.373Z,99016.00
2022-12-19T20:14:30.615Z,99018.00
2022-12-19T20:16:59.877Z,99011.00
2022-12-19T20:19:29.231Z,99019.00
2022-12-19T20:21:59.514Z,99019.00
2022-12-19T20:24:29.174Z,99015.00
2022-12-19T20:26:59.904Z,99012.00
2022-12-19T20:29:29.564Z,99020.00
2022-12-19T20:31:58.939Z,99012.00
2022-12-19T20:34:28.176Z,99014.00
2022-12-19T20:36:57.386Z,99025.00
2022-12-19T20:39:26.713Z,99021.00
2022-12-19T20:41:56.016Z,99024.00
2022-12-19T20:44:25.257Z,99024.00
2022-12-19T20:46:54.965Z,99016.00
2022-12-19T20:49:26.377Z,99014.00
2022-12-19T20:51:55.874Z,99016.00
2022-12-19T20:54:25.126Z,99015.00
2022-12-19T20:56:54.413Z,99018.00
2022-12-19T20:59:23.774Z,99023.00
2022-12-19T21:01:53.087Z,99017.00
2022-12-19T21:04:22.527Z,99014.00
2022-12-19T21:06:51.865Z,99019.00
2022-12-19T21:09:21.045Z,99019.00
2022-12-19T21:11:50.391Z,99023.00
2022-12-19T21:14:19.608Z,99026.00
2022-12-19T21:16:48.813Z,99025.00
2022-12-19T21:19:18.080Z,99022.00
2022-12-19T21:21:47.342Z,99029.00
2022-12-19T21:24:16.512Z,99028.00
2022-12-19T21:26:46.188Z,99026.00
2022-12-19T21:29:15.547Z,99026.00
2022-12-19T21:31:45.744Z,99020.00
2022-12-19T21:34:15.441Z,99019.00
2022-12-19T21:36:44.724Z,99027.00
2022-12-19T21:39:14.116Z,99034.00
2022-12-19T21:41:43.280Z,99031.00
2022-12-19T21:44:13.022Z,99022.00
2022-12-19T21:46:42.234Z,99028.00
2022-12-19T21:49:12.003Z,99024.00
2022-12-19T21:51:41.289Z,99031.00
2022-12-19T21:54:11.674Z,99030.00
2022-12-19T21:56:44.201Z,99034.00
2022-12-19T21:59:17.458Z,99026.00
2022-12-19T22:01:47.554Z,99034.00
2022-12-19T22:04:21.802Z,99034.00
2022-12-19T22:06:53.044Z,99041.00
2022-12-19T22:09:25.924Z,99052.00
2022-12-19T22:11:55.148Z,99043.00
2022-12-19T22:14:24.556Z,99051.00
2022-12-19T22:16:54.781Z,99061.00
2022-12-19T22:19:23.998Z,99061.00
2022-12-19T22:21:53.195Z,99066.00
2022-12-19T22:24:23.319Z,99060.00
2022-12-19T22:26:52.939Z,99064.00
2022-12-19T22:29:22.233Z,99071.00
2022-12-19T22:31:51.589Z,99060.00
2022-12-19T22:34:23.228Z,99069.00
2022-12-19T22:36:52.502Z,99065.00
2022-12-19T22:39:23.441Z,99061.00
2022-12-19T22:41:53.013Z,99065.00
2022-12-19T22:44:25.367Z,99071.00
2022-12-19T22:46:54.964Z,99070.00
2022-12-19T22:49:24.112Z,99071.00
2022-12-19T22:51:53.322Z,99075.00
2022-12-19T22:54:22.487Z,99078.00
2022-12-19T22:56:53.049Z,99078.00
2022-12-19T22:59:22.460Z,99088.00
2022-12-19T23:01:51.836Z,99079.00
2022-12-19T23:04:21.253Z,99084.00
2022-12-19T23:06:50.560Z,99091.00
2022-12-19T23:09:20.663Z,99093.00
2022-12-19T23:11:51.236Z,99100.00
2022-12-19T23:14:22.517Z,99096.00
2022-12-19T23:16:52.078Z,99103.00
2022-12-19T23:19:21.494Z,99105.00
2022-12-19T23:21:50.576Z,99108.00
2022-12-19T23:24:19.852Z,99109.00
2022-12-19T23:26:48.924Z,99107.00
2022-12-19T23:29:18.192Z,99108.00
2022-12-19T23:31:48.850Z,99118.00
2022-12-19T23:34:19.047Z,99122.00
2022-12-19T23:39:37.451Z,99148.00
2022-12-19T23:42:06.846Z,99144.00
2022-12-19T23:44:36.208Z,99143.00
2022-12-19T23:47:05.328Z,99148.00
2022-12-19T23:49:35.453Z,99151.00
2022-12-19T23:52:05.453Z,99151.00
2022-12-19T23:54:34.693Z,99152.00
2022-12-19T23:57:03.831Z,99161.00
2022-12-19T23:59:33.011Z,99171.00
